Time,TemperatureF,DewpointF,PressureIn,WindDirection,WindDirectionDegrees,WindSpeedMPH,WindSpeedGustMPH,Humidity,HourlyPrecipIn,Conditions,Clouds,dailyrainin,SolarRadiationWatts/m^2,SoftwareType,DateUTC
2013-04-10 00:00:00,54.4,51.2,29.89,SSW,210,3.0,3.0,89,0.00,,,0.00,0,Wunderground v.1.15,2013-04-10 04:00:00,
2013-04-10 00:01:00,54.4,51.2,29.89,SSW,210,3.0,3.0,89,0.00,,,0.00,0,Wunderground v.1.15,2013-04-10 04:01:00,
2013-04-10 00:03:00,54.3,51.1,29.89,SW,221,3.0,4.0,89,0.00,,,0.00,0,Wunderground v.1.15,2013-04-10 04:03:00,
2013-04-10 00:04:00,54.3,51.1,29.89,SSW,209,3.0,6.0,89,0.00,,,0.00,0,Wunderground v.1.15,2013-04-10 04:04:00,
2013-04-10 00:09:00,54.2,51.0,29.89,SW,218,3.0,6.0,89,0.00,,,0.00,0,Wunderground v.1.15,2013-04-10 04:09:00,
2013-04-10 00:14:00,54.2,51.0,29.89,SW,215,1.0,2.0,89,0.00,,,0.00,0,Wunderground v.1.15,2013-04-10 04:14:00,
2013-04-10 00:20:00,54.1,50.9,29.90,SW,218,1.0,1.0,89,0.00,,,0.00,0,Wunderground v.1.15,2013-04-10 04:20:00,
2013-04-10 00:26:00,53.9,50.7,29.90,SW,218,0.0,1.0,89,0.00,,,0.00,0,Wunderground v.1.15,2013-04-10 04:26:00,
2013-04-10 00:32:00,53.8,50.6,29.90,SW,217,0.0,0.0,89,0.00,,,0.00,0,Wunderground v.1.15,2013-04-10 04:32:00,
2013-04-10 00:37:00,53.6,50.4,29.90,SW,217,0.0,1.0,89,0.00,,,0.00,0,Wunderground v.1.15,2013-04-10 04:37:00,
2013-04-10 00:42:00,53.5,50.3,29.90,SW,216,0.0,0.0,89,0.00,,,0.00,0,Wunderground v.1.15,2013-04-10 04:42:00,
2013-04-10 00:48:00,53.4,50.2,29.90,SSW,211,0.0,2.0,89,0.00,,,0.00,0,Wunderground v.1.15,2013-04-10 04:48:00,
2013-04-10 00:53:00,53.2,50.3,29.90,SSW,213,0.0,2.0,90,0.00,,,0.00,0,Wunderground v.1.15,2013-04-10 04:53:00,
2013-04-10 00:58:00,53.1,50.2,29.90,SW,215,0.0,3.0,90,0.00,,,0.00,0,Wunderground v.1.15,2013-04-10 04:58:00,
2013-04-10 01:03:00,53.0,50.1,29.90,SW,216,1.0,1.0,90,0.00,,,0.00,0,Wunderground v.1.15,2013-04-10 05:03:00,
2013-04-10 01:09:00,52.8,49.9,29.90,SW,215,1.0,1.0,90,0.00,,,0.00,0,Wunderground v.1.15,2013-04-10 05:09:00,
2013-04-10 01:14:00,52.6,49.8,29.90,SSW,213,0.0,1.0,90,0.00,,,0.00,0,Wunderground v.1.15,2013-04-10 05:14:00,
2013-04-10 01:19:00,52.4,49.8,29.90,WSW,246,0.0,2.0,91,0.00,,,0.00,0,Wunderground v.1.15,2013-04-10 05:19:00,
2013-04-10 01:24:00,52.3,49.8,29.90,NE,36,1.0,2.0,91,0.00,,,0.00,0,Wunderground v.1.15,2013-04-10 05:24:00,
2013-04-10 01:30:00,52.2,49.7,29.90,NE,34,0.0,1.0,91,0.00,,,0.00,0,Wunderground v.1.15,2013-04-10 05:30:00,
2013-04-10 01:36:00,52.1,49.6,29.90,NE,36,0.0,2.0,91,0.00,,,0.00,0,Wunderground v.1.15,2013-04-10 05:36:00,
2013-04-10 01:41:00,52.0,49.5,29.90,NE,34,0.0,0.0,91,0.00,,,0.00,0,Wunderground v.1.15,2013-04-10 05:41:00,
2013-04-10 01:47:00,51.8,49.5,29.90,NE,34,0.0,1.0,92,0.00,,,0.00,0,Wunderground v.1.15,2013-04-10 05:47:00,
2013-04-10 01:52:00,51.7,49.2,29.90,NNE,16,0.0,0.0,91,0.00,,,0.00,0,Wunderground v.1.15,2013-04-10 05:52:00,
2013-04-10 01:58:00,51.6,49.4,29.90,NNE,17,0.0,2.0,92,0.00,,,0.00,0,Wunderground v.1.15,2013-04-10 05:58:00,
2013-04-10 02:03:00,51.6,49.4,29.90,NNE,17,0.0,1.0,92,0.00,,,0.00,0,Wunderground v.1.15,2013-04-10 06:03:00,
2013-04-10 02:09:00,51.5,49.3,29.90,NNW,327,0.0,4.0,92,0.00,,,0.00,0,Wunderground v.1.15,2013-04-10 06:09:00,
2013-04-10 02:14:00,51.5,49.3,29.90,NE,44,1.0,3.0,92,0.00,,,0.00,0,Wunderground v.1.15,2013-04-10 06:14:00,
2013-04-10 02:19:00,51.5,49.3,29.90,NE,46,1.0,3.0,92,0.00,,,0.00,0,Wunderground v.1.15,2013-04-10 06:19:00,
2013-04-10 02:25:00,51.4,49.2,29.90,NNW,331,0.0,1.0,92,0.00,,,0.00,0,Wunderground v.1.15,2013-04-10 06:25:00,
2013-04-10 02:30:00,51.4,49.2,29.90,North,355,0.0,0.0,92,0.00,,,0.00,0,Wunderground v.1.15,2013-04-10 06:30:00,
2013-04-10 02:35:00,51.5,49.3,29.90,NE,36,1.0,4.0,92,0.00,,,0.00,0,Wunderground v.1.15,2013-04-10 06:35:00,
2013-04-10 02:41:00,51.8,49.5,29.90,NE,38,1.0,2.0,92,0.00,,,0.00,0,Wunderground v.1.15,2013-04-10 06:41:00,
2013-04-10 02:46:00,51.9,49.6,29.90,West,270,1.0,4.0,92,0.00,,,0.00,0,Wunderground v.1.15,2013-04-10 06:46:00,
2013-04-10 02:52:00,52.2,49.7,29.90,WSW,252,3.0,11.0,91,0.00,,,0.00,0,Wunderground v.1.15,2013-04-10 06:52:00,
2013-04-10 02:57:00,53.3,50.1,29.90,West,265,4.0,11.0,89,0.00,,,0.00,0,Wunderground v.1.15,2013-04-10 06:57:00,
2013-04-10 03:03:00,54.0,50.5,29.90,NW,308,5.0,10.0,88,0.00,,,0.00,0,Wunderground v.1.15,2013-04-10 07:03:00,
2013-04-10 03:09:00,56.2,51.1,29.89,West,271,8.0,15.0,83,0.00,,,0.00,0,Wunderground v.1.15,2013-04-10 07:09:00,
2013-04-10 03:15:00,59.6,53.1,29.89,SSW,196,8.0,9.0,79,0.00,,,0.00,0,Wunderground v.1.15,2013-04-10 07:15:00,
2013-04-10 03:20:00,61.6,52.9,29.90,West,269,6.0,9.0,73,0.00,,,0.00,0,Wunderground v.1.15,2013-04-10 07:20:00,
2013-04-10 03:26:00,63.0,53.1,29.89,WNW,301,5.0,9.0,70,0.00,,,0.00,0,Wunderground v.1.15,2013-04-10 07:26:00,
2013-04-10 03:32:00,63.8,53.4,29.90,West,275,5.0,5.0,69,0.00,,,0.00,0,Wunderground v.1.15,2013-04-10 07:32:00,
2013-04-10 03:37:00,64.2,53.4,29.90,SW,235,6.0,6.0,68,0.00,,,0.00,0,Wunderground v.1.15,2013-04-10 07:37:00,
2013-04-10 03:43:00,64.6,53.4,29.90,WNW,292,7.0,15.0,67,0.00,,,0.00,0,Wunderground v.1.15,2013-04-10 07:43:00,
2013-04-10 03:49:00,65.2,53.6,29.90,WSW,246,5.0,15.0,66,0.00,,,0.00,0,Wunderground v.1.15,2013-04-10 07:49:00,
2013-04-10 03:54:00,66.2,53.7,29.90,WSW,237,5.0,11.0,64,0.00,,,0.00,0,Wunderground v.1.15,2013-04-10 07:54:00,
2013-04-10 04:00:00,66.4,53.8,29.90,SW,234,5.0,5.0,64,0.00,,,0.00,0,Wunderground v.1.15,2013-04-10 08:00:00,
2013-04-10 04:06:00,65.5,53.4,29.90,SSW,194,1.0,5.0,65,0.00,,,0.00,0,Wunderground v.1.15,2013-04-10 08:06:00,
2013-04-10 04:12:00,64.1,52.9,29.91,West,266,5.0,14.0,67,0.00,,,0.00,0,Wunderground v.1.15,2013-04-10 08:12:00,
2013-04-10 04:18:00,65.2,54.0,29.90,SSW,213,6.0,14.0,67,0.00,,,0.00,0,Wunderground v.1.15,2013-04-10 08:18:00,
2013-04-10 04:24:00,64.8,53.6,29.91,West,263,5.0,6.0,67,0.00,,,0.00,0,Wunderground v.1.15,2013-04-10 08:24:00,
2013-04-10 04:29:00,64.0,53.6,29.91,ENE,59,3.0,6.0,69,0.00,,,0.00,0,Wunderground v.1.15,2013-04-10 08:29:00,
2013-04-10 04:35:00,62.9,53.0,29.91,ESE,121,1.0,4.0,70,0.00,,,0.00,0,Wunderground v.1.15,2013-04-10 08:35:00,
2013-04-10 04:41:00,61.8,52.7,29.91,SSW,207,1.0,4.0,72,0.00,,,0.00,0,Wunderground v.1.15,2013-04-10 08:41:00,
2013-04-10 04:47:00,61.8,52.7,29.91,SSW,202,1.0,6.0,72,0.00,,,0.00,0,Wunderground v.1.15,2013-04-10 08:47:00,
2013-04-10 04:52:00,61.9,52.8,29.91,SW,220,3.0,13.0,72,0.00,,,0.00,0,Wunderground v.1.15,2013-04-10 08:52:00,
2013-04-10 04:57:00,62.4,53.3,29.91,WSW,255,5.0,13.0,72,0.00,,,0.00,0,Wunderground v.1.15,2013-04-10 08:57:00,
2013-04-10 05:03:00,61.9,52.8,29.92,South,190,5.0,7.0,72,0.00,,,0.00,0,Wunderground v.1.15,2013-04-10 09:03:00,
2013-04-10 05:09:00,61.4,52.7,29.92,South,186,4.0,7.0,73,0.00,,,0.00,0,Wunderground v.1.15,2013-04-10 09:09:00,
2013-04-10 05:14:00,60.9,52.9,29.92,NNW,329,2.0,3.0,75,0.00,,,0.00,0,Wunderground v.1.15,2013-04-10 09:14:00,
2013-04-10 05:19:00,60.9,52.9,29.92,SSE,152,1.0,3.0,75,0.00,,,0.00,0,Wunderground v.1.15,2013-04-10 09:19:00,
2013-04-10 05:25:00,60.2,52.2,29.92,West,277,2.0,4.0,75,0.00,,,0.00,0,Wunderground v.1.15,2013-04-10 09:25:00,
2013-04-10 05:31:00,60.2,52.6,29.92,West,259,3.0,8.0,76,0.00,,,0.00,0,Wunderground v.1.15,2013-04-10 09:31:00,
2013-04-10 05:37:00,60.7,52.7,29.92,SE,126,5.0,8.0,75,0.00,,,0.00,0,Wunderground v.1.15,2013-04-10 09:37:00,
2013-04-10 05:43:00,60.6,52.6,29.93,SSW,206,3.0,5.0,75,0.00,,,0.00,0,Wunderground v.1.15,2013-04-10 09:43:00,
2013-04-10 05:48:00,60.0,52.4,29.92,SSE,164,3.0,7.0,76,0.00,,,0.00,0,Wunderground v.1.15,2013-04-10 09:48:00,
2013-04-10 05:54:00,60.0,52.4,29.92,South,190,4.0,5.0,76,0.00,,,0.00,0,Wunderground v.1.15,2013-04-10 09:54:00,
2013-04-10 05:59:00,59.3,52.4,29.92,SSE,158,3.0,5.0,78,0.00,,,0.00,0,Wunderground v.1.15,2013-04-10 09:59:00,
2013-04-10 06:05:00,58.7,52.2,29.92,South,173,3.0,6.0,79,0.00,,,0.00,0,Wunderground v.1.15,2013-04-10 10:05:00,
2013-04-10 06:10:00,58.2,52.1,29.92,SSW,200,3.0,3.0,80,0.00,,,0.00,0,Wunderground v.1.15,2013-04-10 10:10:00,
2013-04-10 06:15:00,57.9,51.8,29.92,South,190,2.0,5.0,80,0.00,,,0.00,0,Wunderground v.1.15,2013-04-10 10:15:00,
2013-04-10 06:21:00,57.5,51.7,29.92,SSW,211,1.0,5.0,81,0.00,,,0.00,0,Wunderground v.1.15,2013-04-10 10:21:00,
2013-04-10 06:27:00,56.8,51.7,29.92,SW,234,2.0,5.0,83,0.00,,,0.00,0,Wunderground v.1.15,2013-04-10 10:27:00,
2013-04-10 06:32:00,56.2,51.4,29.92,SSW,207,3.0,5.0,84,0.00,,,0.00,0,Wunderground v.1.15,2013-04-10 10:32:00,
2013-04-10 06:37:00,55.8,51.4,29.92,WSW,255,4.0,6.0,85,0.00,,,0.00,0,Wunderground v.1.15,2013-04-10 10:37:00,
2013-04-10 06:43:00,55.5,51.1,29.92,West,265,3.0,4.0,85,0.00,,,0.00,0,Wunderground v.1.15,2013-04-10 10:43:00,
2013-04-10 06:49:00,55.2,51.1,29.92,WSW,252,3.0,7.0,86,0.00,,,0.00,7,Wunderground v.1.15,2013-04-10 10:49:00,
2013-04-10 06:54:00,54.9,51.1,29.92,West,274,3.0,4.0,87,0.00,,,0.00,12,Wunderground v.1.15,2013-04-10 10:54:00,
2013-04-10 06:59:00,54.8,51.3,29.92,North,360,3.0,4.0,88,0.00,,,0.00,18,Wunderground v.1.15,2013-04-10 10:59:00,
2013-04-10 07:05:00,54.6,51.1,29.92,SW,229,3.0,5.0,88,0.00,,,0.00,25,Wunderground v.1.15,2013-04-10 11:05:00,
2013-04-10 07:10:00,54.5,51.0,29.93,North,360,3.0,4.0,88,0.00,,,0.00,30,Wunderground v.1.15,2013-04-10 11:10:00,
2013-04-10 07:16:00,54.7,51.5,29.92,SW,221,4.0,6.0,89,0.00,,,0.00,39,Wunderground v.1.15,2013-04-10 11:16:00,
2013-04-10 07:22:00,55.0,51.8,29.92,SSW,208,5.0,7.0,89,0.00,,,0.00,47,Wunderground v.1.15,2013-04-10 11:22:00,
2013-04-10 07:27:00,55.3,52.1,29.92,WSW,240,4.0,7.0,89,0.00,,,0.00,51,Wunderground v.1.15,2013-04-10 11:27:00,
2013-04-10 07:33:00,56.0,52.5,29.92,SW,234,5.0,7.0,88,0.00,,,0.00,67,Wunderground v.1.15,2013-04-10 11:33:00,
2013-04-10 07:39:00,56.6,52.8,29.92,South,190,5.0,9.0,87,0.00,,,0.00,74,Wunderground v.1.15,2013-04-10 11:39:00,
2013-04-10 07:44:00,57.0,53.2,29.93,SW,225,6.0,9.0,87,0.00,,,0.00,56,Wunderground v.1.15,2013-04-10 11:44:00,
2013-04-10 07:50:00,57.3,53.1,29.93,SW,222,5.0,6.0,86,0.00,,,0.00,109,Wunderground v.1.15,2013-04-10 11:50:00,
2013-04-10 07:56:00,57.7,53.9,29.93,SSW,198,4.0,8.0,87,0.00,,,0.00,120,Wunderground v.1.15,2013-04-10 11:56:00,
2013-04-10 08:02:00,58.4,54.5,29.93,SW,226,5.0,7.0,87,0.00,,,0.00,169,Wunderground v.1.15,2013-04-10 12:02:00,
2013-04-10 08:07:00,59.2,55.0,29.93,North,360,4.0,7.0,86,0.00,,,0.00,178,Wunderground v.1.15,2013-04-10 12:07:00,
2013-04-10 08:13:00,60.4,55.9,29.93,SW,234,4.0,5.0,85,0.00,,,0.00,227,Wunderground v.1.15,2013-04-10 12:13:00,
2013-04-10 08:18:00,61.6,56.7,29.94,SSW,208,4.0,5.0,84,0.00,,,0.00,232,Wunderground v.1.15,2013-04-10 12:18:00,
2013-04-10 08:24:00,63.4,56.4,29.94,SW,219,5.0,13.0,78,0.00,,,0.00,248,Wunderground v.1.15,2013-04-10 12:24:00,
2013-04-10 08:29:00,65.3,57.2,29.93,North,360,7.0,13.0,75,0.00,,,0.00,267,Wunderground v.1.15,2013-04-10 12:29:00,
2013-04-10 08:35:00,66.9,57.2,29.93,SSW,209,5.0,11.0,71,0.00,,,0.00,267,Wunderground v.1.15,2013-04-10 12:35:00,
2013-04-10 08:41:00,68.2,57.6,29.93,West,264,6.0,6.0,69,0.00,,,0.00,292,Wunderground v.1.15,2013-04-10 12:41:00,
2013-04-10 08:46:00,69.1,58.5,29.93,South,185,6.0,9.0,69,0.00,,,0.00,338,Wunderground v.1.15,2013-04-10 12:46:00,
2013-04-10 08:52:00,70.1,58.6,29.93,SSW,209,5.0,9.0,67,0.00,,,0.00,343,Wunderground v.1.15,2013-04-10 12:52:00,
2013-04-10 08:57:00,70.8,58.0,29.93,SW,231,7.0,9.0,64,0.00,,,0.00,366,Wunderground v.1.15,2013-04-10 12:57:00,
2013-04-10 09:03:00,71.3,58.5,29.93,West,281,7.0,8.0,64,0.00,,,0.00,360,Wunderground v.1.15,2013-04-10 13:03:00,
2013-04-10 09:08:00,71.7,58.9,29.92,SSW,207,7.0,11.0,64,0.00,,,0.00,418,Wunderground v.1.15,2013-04-10 13:08:00,
2013-04-10 09:14:00,72.3,59.0,29.92,WSW,258,7.0,9.0,63,0.00,,,0.00,427,Wunderground v.1.15,2013-04-10 13:14:00,
2013-04-10 09:20:00,72.8,59.5,29.92,WSW,245,6.0,6.0,63,0.00,,,0.00,452,Wunderground v.1.15,2013-04-10 13:20:00,
2013-04-10 09:25:00,73.2,59.4,29.92,WSW,245,6.0,17.0,62,0.00,,,0.00,461,Wunderground v.1.15,2013-04-10 13:25:00,
2013-04-10 09:31:00,73.6,59.3,29.92,West,266,8.0,12.0,61,0.00,,,0.00,473,Wunderground v.1.15,2013-04-10 13:31:00,
2013-04-10 09:36:00,74.0,59.2,29.92,North,360,8.0,18.0,60,0.00,,,0.00,497,Wunderground v.1.15,2013-04-10 13:36:00,
2013-04-10 09:42:00,74.3,59.5,29.92,WSW,239,10.0,14.0,60,0.00,,,0.00,524,Wunderground v.1.15,2013-04-10 13:42:00,
2013-04-10 09:47:00,74.4,60.5,29.92,SW,235,13.0,17.0,62,0.00,,,0.00,550,Wunderground v.1.15,2013-04-10 13:47:00,
2013-04-10 09:53:00,74.7,60.4,29.92,WNW,292,11.0,18.0,61,0.00,,,0.00,466,Wunderground v.1.15,2013-04-10 13:53:00,
2013-04-10 09:59:00,75.1,60.7,29.92,West,272,11.0,18.0,61,0.00,,,0.00,564,Wunderground v.1.15,2013-04-10 13:59:00,
2013-04-10 10:04:00,75.4,61.5,29.92,West,274,10.0,12.0,62,0.00,,,0.00,596,Wunderground v.1.15,2013-04-10 14:04:00,
2013-04-10 10:09:00,75.9,60.5,29.92,West,263,9.0,20.0,59,0.00,,,0.00,596,Wunderground v.1.15,2013-04-10 14:09:00,
2013-04-10 10:15:00,76.0,60.6,29.92,SW,228,11.0,21.0,59,0.00,,,0.00,617,Wunderground v.1.15,2013-04-10 14:15:00,
2013-04-10 10:20:00,76.2,59.9,29.92,SSW,213,11.0,11.0,57,0.00,,,0.00,635,Wunderground v.1.15,2013-04-10 14:20:00,
2013-04-10 10:26:00,76.4,60.5,29.92,WSW,238,13.0,28.0,58,0.00,,,0.00,617,Wunderground v.1.15,2013-04-10 14:26:00,
2013-04-10 10:32:00,76.3,59.9,29.92,SW,227,17.0,17.0,57,0.00,,,0.00,663,Wunderground v.1.15,2013-04-10 14:32:00,
2013-04-10 10:38:00,76.5,60.6,29.92,WNW,293,17.0,21.0,58,0.00,,,0.00,675,Wunderground v.1.15,2013-04-10 14:38:00,
2013-04-10 10:44:00,76.7,60.8,29.92,West,259,14.0,22.0,58,0.00,,,0.00,642,Wunderground v.1.15,2013-04-10 14:44:00,
2013-04-10 10:49:00,76.7,60.3,29.91,WNW,294,15.0,22.0,57,0.00,,,0.00,679,Wunderground v.1.15,2013-04-10 14:49:00,
2013-04-10 10:55:00,77.3,60.4,29.91,North,360,13.0,23.0,56,0.00,,,0.00,726,Wunderground v.1.15,2013-04-10 14:55:00,
2013-04-10 11:00:00,77.8,60.8,29.91,SW,236,12.0,12.0,56,0.00,,,0.00,722,Wunderground v.1.15,2013-04-10 15:00:00,
2013-04-10 11:06:00,78.1,61.1,29.91,SW,222,11.0,14.0,56,0.00,,,0.00,744,Wunderground v.1.15,2013-04-10 15:06:00,
2013-04-10 11:12:00,78.2,61.7,29.90,North,360,13.0,21.0,57,0.00,,,0.00,770,Wunderground v.1.15,2013-04-10 15:12:00,
2013-04-10 11:17:00,78.2,60.7,29.91,WSW,242,15.0,21.0,55,0.00,,,0.00,784,Wunderground v.1.15,2013-04-10 15:17:00,
2013-04-10 11:22:00,78.3,60.8,29.91,WSW,254,11.0,17.0,55,0.00,,,0.00,773,Wunderground v.1.15,2013-04-10 15:22:00,
2013-04-10 11:28:00,78.7,61.7,29.91,West,281,12.0,24.0,56,0.00,,,0.00,788,Wunderground v.1.15,2013-04-10 15:28:00,
2013-04-10 11:33:00,78.8,60.7,29.91,SW,225,12.0,14.0,54,0.00,,,0.00,765,Wunderground v.1.15,2013-04-10 15:33:00,
2013-04-10 11:38:00,79.3,61.7,29.91,WSW,249,11.0,25.0,55,0.00,,,0.00,780,Wunderground v.1.15,2013-04-10 15:38:00,
2013-04-10 11:44:00,79.2,61.1,29.90,WNW,294,15.0,24.0,54,0.00,,,0.00,784,Wunderground v.1.15,2013-04-10 15:44:00,
2013-04-10 11:49:00,79.2,60.6,29.90,WSW,257,10.0,24.0,53,0.00,,,0.00,807,Wunderground v.1.15,2013-04-10 15:49:00,
2013-04-10 11:55:00,79.5,60.9,29.90,North,360,8.0,17.0,53,0.00,,,0.00,821,Wunderground v.1.15,2013-04-10 15:55:00,
2013-04-10 12:00:00,79.9,61.8,29.90,NNW,343,10.0,10.0,54,0.00,,,0.00,853,Wunderground v.1.15,2013-04-10 16:00:00,
2013-04-10 12:06:00,79.7,61.1,29.90,North,360,11.0,17.0,53,0.00,,,0.00,879,Wunderground v.1.15,2013-04-10 16:06:00,
2013-04-10 12:11:00,79.7,61.6,29.90,SW,226,12.0,13.0,54,0.00,,,0.00,882,Wunderground v.1.15,2013-04-10 16:11:00,
2013-04-10 12:17:00,80.0,60.8,29.90,SW,224,9.0,18.0,52,0.00,,,0.00,858,Wunderground v.1.15,2013-04-10 16:17:00,
2013-04-10 12:22:00,80.1,61.4,29.89,North,360,9.0,18.0,53,0.00,,,0.00,881,Wunderground v.1.15,2013-04-10 16:22:00,
2013-04-10 12:27:00,80.2,61.5,29.89,NW,321,12.0,20.0,53,0.00,,,0.00,432,Wunderground v.1.15,2013-04-10 16:27:00,
2013-04-10 12:33:00,79.5,60.9,29.89,WSW,250,13.0,18.0,53,0.00,,,0.00,213,Wunderground v.1.15,2013-04-10 16:33:00,
2013-04-10 12:38:00,79.1,60.5,29.89,WSW,254,14.0,21.0,53,0.00,,,0.00,192,Wunderground v.1.15,2013-04-10 16:38:00,
2013-04-10 12:44:00,78.8,61.3,29.89,WSW,246,12.0,14.0,55,0.00,,,0.00,199,Wunderground v.1.15,2013-04-10 16:44:00,
2013-04-10 12:49:00,78.9,60.3,29.88,WNW,285,10.0,18.0,53,0.00,,,0.00,207,Wunderground v.1.15,2013-04-10 16:49:00,
2013-04-10 12:54:00,78.9,61.4,29.89,North,360,12.0,19.0,55,0.00,,,0.00,937,Wunderground v.1.15,2013-04-10 16:54:00,
2013-04-10 12:59:00,79.4,60.2,29.88,West,281,11.0,19.0,52,0.00,,,0.00,207,Wunderground v.1.15,2013-04-10 16:59:00,
2013-04-10 13:05:00,79.3,60.7,29.88,West,268,10.0,15.0,53,0.00,,,0.00,200,Wunderground v.1.15,2013-04-10 17:05:00,
2013-04-10 13:11:00,80.1,62.0,29.88,SW,222,10.0,13.0,54,0.00,,,0.00,967,Wunderground v.1.15,2013-04-10 17:11:00,
2013-04-10 13:17:00,80.5,62.3,29.88,North,360,12.0,18.0,54,0.00,,,0.00,738,Wunderground v.1.15,2013-04-10 17:17:00,
2013-04-10 13:22:00,80.7,62.0,29.88,North,360,14.0,15.0,53,0.00,,,0.00,227,Wunderground v.1.15,2013-04-10 17:22:00,
2013-04-10 13:27:00,80.6,60.8,29.88,West,271,12.0,17.0,51,0.00,,,0.00,294,Wunderground v.1.15,2013-04-10 17:27:00,
2013-04-10 13:33:00,80.5,61.3,29.88,West,259,9.0,13.0,52,0.00,,,0.00,258,Wunderground v.1.15,2013-04-10 17:33:00,
2013-04-10 13:38:00,80.2,60.4,29.87,West,268,10.0,19.0,51,0.00,,,0.00,919,Wunderground v.1.15,2013-04-10 17:38:00,
2013-04-10 13:44:00,80.2,61.0,29.87,SSW,196,11.0,16.0,52,0.00,,,0.00,244,Wunderground v.1.15,2013-04-10 17:44:00,
2013-04-10 13:49:00,80.3,61.6,29.87,SSW,194,10.0,16.0,53,0.00,,,0.00,1004,Wunderground v.1.15,2013-04-10 17:49:00,
2013-04-10 13:54:00,81.2,60.2,29.86,SW,221,7.0,14.0,49,0.00,,,0.00,1041,Wunderground v.1.15,2013-04-10 17:54:00,
2013-04-10 14:00:00,81.9,60.3,29.86,SW,227,10.0,10.0,48,0.00,,,0.00,979,Wunderground v.1.15,2013-04-10 18:00:00,
2013-04-10 14:07:00,82.1,59.3,29.85,WNW,286,10.0,16.0,46,0.00,,,0.00,969,Wunderground v.1.15,2013-04-10 18:07:00,
2013-04-10 14:12:00,82.5,62.0,29.86,SW,222,11.0,14.0,50,0.00,,,0.00,877,Wunderground v.1.15,2013-04-10 18:12:00,
2013-04-10 14:18:00,82.7,61.0,29.86,North,360,9.0,14.0,48,0.00,,,0.00,301,Wunderground v.1.15,2013-04-10 18:18:00,
2013-04-10 14:23:00,82.8,61.7,29.85,North,360,7.0,14.0,49,0.00,,,0.00,385,Wunderground v.1.15,2013-04-10 18:23:00,
2013-04-10 14:28:00,83.3,61.6,29.85,WSW,238,7.0,14.0,48,0.00,,,0.00,983,Wunderground v.1.15,2013-04-10 18:28:00,
2013-04-10 14:34:00,83.6,61.2,29.85,North,360,8.0,15.0,47,0.00,,,0.00,285,Wunderground v.1.15,2013-04-10 18:34:00,
2013-04-10 14:39:00,83.3,61.0,29.85,WSW,243,9.0,16.0,47,0.00,,,0.00,301,Wunderground v.1.15,2013-04-10 18:39:00,
2013-04-10 14:44:00,83.0,61.9,29.84,SSW,208,10.0,16.0,49,0.00,,,0.00,262,Wunderground v.1.15,2013-04-10 18:44:00,
2013-04-10 14:50:00,83.7,61.3,29.84,WNW,283,9.0,9.0,47,0.00,,,0.00,654,Wunderground v.1.15,2013-04-10 18:50:00,
2013-04-10 14:56:00,83.7,60.7,29.83,SW,214,10.0,19.0,46,0.00,,,0.00,619,Wunderground v.1.15,2013-04-10 18:56:00,
2013-04-10 15:02:00,84.0,61.0,29.83,SSW,200,12.0,16.0,46,0.00,,,0.00,782,Wunderground v.1.15,2013-04-10 19:02:00,
2013-04-10 15:08:00,84.2,59.9,29.83,WSW,250,12.0,18.0,44,0.00,,,0.00,283,Wunderground v.1.15,2013-04-10 19:08:00,
2013-04-10 15:13:00,83.6,60.0,29.83,SSW,210,10.0,12.0,45,0.00,,,0.00,287,Wunderground v.1.15,2013-04-10 19:13:00,
2013-04-10 15:18:00,83.4,60.4,29.82,SW,217,7.0,12.0,46,0.00,,,0.00,504,Wunderground v.1.15,2013-04-10 19:18:00,
2013-04-10 15:24:00,83.9,60.3,29.82,West,261,8.0,14.0,45,0.00,,,0.00,457,Wunderground v.1.15,2013-04-10 19:24:00,
2013-04-10 15:30:00,84.4,60.7,29.82,North,360,10.0,12.0,45,0.00,,,0.00,670,Wunderground v.1.15,2013-04-10 19:30:00,
2013-04-10 15:35:00,84.7,59.7,29.82,SW,221,11.0,21.0,43,0.00,,,0.00,339,Wunderground v.1.15,2013-04-10 19:35:00,
2013-04-10 15:40:00,84.5,61.4,29.82,North,360,9.0,15.0,46,0.00,,,0.00,336,Wunderground v.1.15,2013-04-10 19:40:00,
2013-04-10 15:46:00,84.4,59.5,29.82,WSW,246,9.0,17.0,43,0.00,,,0.00,584,Wunderground v.1.15,2013-04-10 19:46:00,
2013-04-10 15:52:00,84.1,60.5,29.82,WSW,246,9.0,12.0,45,0.00,,,0.00,353,Wunderground v.1.15,2013-04-10 19:52:00,
2013-04-10 15:57:00,83.9,59.0,29.82,West,261,11.0,24.0,43,0.00,,,0.00,394,Wunderground v.1.15,2013-04-10 19:57:00,
2013-04-10 16:02:00,83.8,59.6,29.82,West,269,14.0,14.0,44,0.00,,,0.00,376,Wunderground v.1.15,2013-04-10 20:02:00,
2013-04-10 16:08:00,83.8,60.8,29.81,WSW,246,10.0,14.0,46,0.00,,,0.00,555,Wunderground v.1.15,2013-04-10 20:08:00,
2013-04-10 16:13:00,84.1,59.2,29.81,WNW,296,9.0,14.0,43,0.00,,,0.00,288,Wunderground v.1.15,2013-04-10 20:13:00,
2013-04-10 16:19:00,83.8,58.9,29.81,North,360,12.0,18.0,43,0.00,,,0.00,283,Wunderground v.1.15,2013-04-10 20:19:00,
2013-04-10 16:25:00,83.6,60.0,29.81,SW,223,11.0,12.0,45,0.00,,,0.00,246,Wunderground v.1.15,2013-04-10 20:25:00,
2013-04-10 16:30:00,83.6,60.0,29.80,SW,234,10.0,14.0,45,0.00,,,0.00,392,Wunderground v.1.15,2013-04-10 20:30:00,
2013-04-10 16:36:00,83.2,58.4,29.80,WSW,248,12.0,19.0,43,0.00,,,0.00,285,Wunderground v.1.15,2013-04-10 20:36:00,
2013-04-10 16:42:00,83.2,59.0,29.80,WNW,294,10.0,12.0,44,0.00,,,0.00,334,Wunderground v.1.15,2013-04-10 20:42:00,
2013-04-10 16:47:00,83.4,59.2,29.79,North,360,9.0,13.0,44,0.00,,,0.00,374,Wunderground v.1.15,2013-04-10 20:47:00,
2013-04-10 16:52:00,83.6,60.0,29.79,SSW,209,7.0,8.0,45,0.00,,,0.00,318,Wunderground v.1.15,2013-04-10 20:52:00,
2013-04-10 16:58:00,83.9,59.7,29.78,WSW,251,5.0,9.0,44,0.00,,,0.00,281,Wunderground v.1.15,2013-04-10 20:58:00,
2013-04-10 17:04:00,83.8,59.6,29.78,SW,232,5.0,7.0,44,0.00,,,0.00,276,Wunderground v.1.15,2013-04-10 21:04:00,
2013-04-10 17:10:00,83.8,59.6,29.78,WSW,258,5.0,11.0,44,0.00,,,0.00,239,Wunderground v.1.15,2013-04-10 21:10:00,
2013-04-10 17:15:00,83.6,59.4,29.77,SW,229,5.0,11.0,44,0.00,,,0.00,250,Wunderground v.1.15,2013-04-10 21:15:00,
2013-04-10 17:21:00,83.3,60.4,29.77,North,360,6.0,6.0,46,0.00,,,0.00,195,Wunderground v.1.15,2013-04-10 21:21:00,
2013-04-10 17:27:00,83.0,60.1,29.77,North,360,6.0,8.0,46,0.00,,,0.00,188,Wunderground v.1.15,2013-04-10 21:27:00,
2013-04-10 17:32:00,82.9,58.1,29.76,WNW,283,8.0,11.0,43,0.00,,,0.00,229,Wunderground v.1.15,2013-04-10 21:32:00,
2013-04-10 17:37:00,82.9,60.0,29.77,SW,229,7.0,11.0,46,0.00,,,0.00,237,Wunderground v.1.15,2013-04-10 21:37:00,
2013-04-10 17:43:00,82.9,59.4,29.77,SW,236,5.0,8.0,45,0.00,,,0.00,236,Wunderground v.1.15,2013-04-10 21:43:00,
2013-04-10 17:49:00,83.0,60.1,29.77,SW,215,4.0,8.0,46,0.00,,,0.00,223,Wunderground v.1.15,2013-04-10 21:49:00,
2013-04-10 17:54:00,82.9,59.4,29.77,SW,230,5.0,7.0,45,0.00,,,0.00,155,Wunderground v.1.15,2013-04-10 21:54:00,
2013-04-10 17:59:00,82.6,60.3,29.76,WSW,247,7.0,10.0,47,0.00,,,0.00,149,Wunderground v.1.15,2013-04-10 21:59:00,
2013-04-10 18:04:00,82.1,58.7,29.76,SW,230,7.0,12.0,45,0.00,,,0.00,142,Wunderground v.1.15,2013-04-10 22:04:00,
2013-04-10 18:10:00,81.7,57.7,29.77,North,360,10.0,17.0,44,0.00,,,0.00,151,Wunderground v.1.15,2013-04-10 22:10:00,
2013-04-10 18:16:00,81.7,57.0,29.77,North,360,11.0,17.0,43,0.00,,,0.00,155,Wunderground v.1.15,2013-04-10 22:16:00,
2013-04-10 18:21:00,81.6,58.2,29.77,North,360,10.0,11.0,45,0.00,,,0.00,141,Wunderground v.1.15,2013-04-10 22:21:00,
2013-04-10 18:27:00,81.6,57.6,29.77,WSW,257,8.0,12.0,44,0.00,,,0.00,116,Wunderground v.1.15,2013-04-10 22:27:00,
2013-04-10 18:33:00,81.4,58.6,29.77,North,360,7.0,8.0,46,0.00,,,0.00,100,Wunderground v.1.15,2013-04-10 22:33:00,
2013-04-10 18:38:00,81.0,58.9,29.76,WSW,246,6.0,8.0,47,0.00,,,0.00,90,Wunderground v.1.15,2013-04-10 22:38:00,
2013-04-10 18:43:00,80.6,57.3,29.76,West,270,7.0,13.0,45,0.00,,,0.00,79,Wunderground v.1.15,2013-04-10 22:43:00,
2013-04-10 18:48:00,80.3,57.0,29.76,West,265,8.0,13.0,45,0.00,,,0.00,72,Wunderground v.1.15,2013-04-10 22:48:00,
2013-04-10 18:54:00,80.3,57.0,29.76,WSW,252,10.0,19.0,45,0.00,,,0.00,62,Wunderground v.1.15,2013-04-10 22:54:00,
2013-04-10 18:59:00,80.0,56.7,29.76,SW,226,11.0,19.0,45,0.00,,,0.00,56,Wunderground v.1.15,2013-04-10 22:59:00,
2013-04-10 19:05:00,79.6,57.0,29.76,WSW,244,8.0,12.0,46,0.00,,,0.00,49,Wunderground v.1.15,2013-04-10 23:05:00,
2013-04-10 19:12:00,79.3,57.3,29.76,West,259,7.0,8.0,47,0.00,,,0.00,39,Wunderground v.1.15,2013-04-10 23:12:00,
2013-04-10 19:18:00,79.0,55.8,29.76,SW,223,7.0,14.0,45,0.00,,,0.00,32,Wunderground v.1.15,2013-04-10 23:18:00,
2013-04-10 19:24:00,78.7,56.8,29.76,West,263,8.0,8.0,47,0.00,,,0.00,23,Wunderground v.1.15,2013-04-10 23:24:00,
2013-04-10 19:29:00,78.3,57.0,29.76,West,270,6.0,8.0,48,0.00,,,0.00,16,Wunderground v.1.15,2013-04-10 23:29:00,
2013-04-10 19:35:00,77.5,57.9,29.76,West,274,5.0,6.0,51,0.00,,,0.00,9,Wunderground v.1.15,2013-04-10 23:35:00,
2013-04-10 19:40:00,76.3,57.4,29.76,WSW,254,5.0,7.0,52,0.00,,,0.00,5,Wunderground v.1.15,2013-04-10 23:40:00,
2013-04-10 19:46:00,75.3,57.5,29.77,WSW,246,6.0,14.0,54,0.00,,,0.00,0,Wunderground v.1.15,2013-04-10 23:46:00,
2013-04-10 19:52:00,74.3,56.6,29.77,WSW,240,5.0,5.0,54,0.00,,,0.00,0,Wunderground v.1.15,2013-04-10 23:52:00,
2013-04-10 19:57:00,73.6,56.9,29.76,SW,214,5.0,9.0,56,0.00,,,0.00,0,Wunderground v.1.15,2013-04-10 23:57:00,
2013-04-10 20:02:00,73.1,56.5,29.76,SW,225,6.0,10.0,56,0.00,,,0.00,0,Wunderground v.1.15,2013-04-11 00:02:00,
2013-04-10 20:07:00,72.8,56.2,29.77,West,277,6.0,10.0,56,0.00,,,0.00,0,Wunderground v.1.15,2013-04-11 00:07:00,
2013-04-10 20:13:00,72.4,56.3,29.77,WSW,243,4.0,5.0,57,0.00,,,0.00,0,Wunderground v.1.15,2013-04-11 00:13:00,
2013-04-10 20:18:00,71.8,56.7,29.77,SW,236,3.0,5.0,59,0.00,,,0.00,0,Wunderground v.1.15,2013-04-11 00:18:00,
2013-04-10 20:24:00,71.0,56.9,29.77,WSW,255,3.0,4.0,61,0.00,,,0.00,0,Wunderground v.1.15,2013-04-11 00:24:00,
2013-04-10 20:29:00,70.2,56.1,29.77,West,261,3.0,4.0,61,0.00,,,0.00,0,Wunderground v.1.15,2013-04-11 00:29:00,
2013-04-10 20:35:00,69.3,56.2,29.77,West,259,3.0,4.0,63,0.00,,,0.00,0,Wunderground v.1.15,2013-04-11 00:35:00,
2013-04-10 20:41:00,68.7,56.0,29.78,West,267,3.0,3.0,64,0.00,,,0.00,0,Wunderground v.1.15,2013-04-11 00:41:00,
2013-04-10 20:47:00,68.2,56.0,29.78,SW,236,3.0,5.0,65,0.00,,,0.00,0,Wunderground v.1.15,2013-04-11 00:47:00,
2013-04-10 20:52:00,68.0,55.8,29.78,West,259,3.0,4.0,65,0.00,,,0.00,0,Wunderground v.1.15,2013-04-11 00:52:00,
2013-04-10 20:57:00,67.7,55.9,29.78,West,261,2.0,4.0,66,0.00,,,0.00,0,Wunderground v.1.15,2013-04-11 00:57:00,
2013-04-10 21:03:00,67.3,56.0,29.78,West,268,3.0,7.0,67,0.00,,,0.00,0,Wunderground v.1.15,2013-04-11 01:03:00,
2013-04-10 21:09:00,66.9,55.6,29.78,West,281,3.0,7.0,67,0.00,,,0.00,0,Wunderground v.1.15,2013-04-11 01:09:00,
2013-04-10 21:15:00,66.6,55.7,29.78,NW,304,2.0,4.0,68,0.00,,,0.00,0,Wunderground v.1.15,2013-04-11 01:15:00,
2013-04-10 21:20:00,66.5,56.0,29.79,WNW,285,4.0,4.0,69,0.00,,,0.00,0,Wunderground v.1.15,2013-04-11 01:20:00,
2013-04-10 21:26:00,66.3,55.8,29.79,NW,316,5.0,7.0,69,0.00,,,0.00,0,Wunderground v.1.15,2013-04-11 01:26:00,
2013-04-10 21:31:00,66.2,55.7,29.79,WNW,295,4.0,5.0,69,0.00,,,0.00,0,Wunderground v.1.15,2013-04-11 01:31:00,
2013-04-10 21:37:00,65.9,55.8,29.79,WNW,284,3.0,5.0,70,0.00,,,0.00,0,Wunderground v.1.15,2013-04-11 01:37:00,
2013-04-10 21:42:00,65.8,55.7,29.79,NW,308,2.0,5.0,70,0.00,,,0.00,0,Wunderground v.1.15,2013-04-11 01:42:00,
2013-04-10 21:47:00,65.8,55.7,29.79,WNW,296,3.0,5.0,70,0.00,,,0.00,0,Wunderground v.1.15,2013-04-11 01:47:00,
2013-04-10 21:53:00,65.6,55.5,29.79,WNW,298,3.0,4.0,70,0.00,,,0.00,0,Wunderground v.1.15,2013-04-11 01:53:00,
2013-04-10 21:59:00,65.4,55.7,29.79,West,280,3.0,4.0,71,0.00,,,0.00,0,Wunderground v.1.15,2013-04-11 01:59:00,
2013-04-10 22:05:00,65.3,55.7,29.80,West,264,2.0,6.0,71,0.00,,,0.00,0,Wunderground v.1.15,2013-04-11 02:05:00,
2013-04-10 22:11:00,65.1,55.8,29.80,WNW,292,2.0,2.0,72,0.00,,,0.00,0,Wunderground v.1.15,2013-04-11 02:11:00,
2013-04-10 22:17:00,64.8,55.6,29.80,WNW,300,2.0,4.0,72,0.00,,,0.00,0,Wunderground v.1.15,2013-04-11 02:17:00,
2013-04-10 22:22:00,64.5,55.3,29.81,NW,304,3.0,5.0,72,0.00,,,0.00,0,Wunderground v.1.15,2013-04-11 02:22:00,
2013-04-10 22:27:00,64.3,55.5,29.81,WNW,292,3.0,6.0,73,0.00,,,0.00,0,Wunderground v.1.15,2013-04-11 02:27:00,
2013-04-10 22:33:00,64.0,55.2,29.81,NW,309,3.0,5.0,73,0.00,,,0.00,0,Wunderground v.1.15,2013-04-11 02:33:00,
2013-04-10 22:39:00,63.7,55.6,29.81,WSW,239,2.0,5.0,75,0.00,,,0.00,0,Wunderground v.1.15,2013-04-11 02:39:00,
2013-04-10 22:45:00,63.4,55.0,29.81,WSW,240,1.0,2.0,74,0.00,,,0.00,0,Wunderground v.1.15,2013-04-11 02:45:00,
2013-04-10 22:50:00,63.2,55.1,29.82,NW,316,2.0,4.0,75,0.00,,,0.00,0,Wunderground v.1.15,2013-04-11 02:50:00,
2013-04-10 22:56:00,63.6,55.2,29.86,North,355,8.0,30.0,74,0.00,,,0.00,0,Wunderground v.1.15,2013-04-11 02:56:00,
2013-04-10 23:02:00,67.9,57.4,29.88,NNW,329,19.0,23.0,69,0.00,,,0.00,0,Wunderground v.1.15,2013-04-11 03:02:00,
2013-04-10 23:08:00,68.0,56.6,29.88,NNE,17,20.0,31.0,67,0.00,,,0.00,0,Wunderground v.1.15,2013-04-11 03:08:00,
2013-04-10 23:13:00,67.4,56.1,29.88,NNW,346,20.0,24.0,67,0.00,,,0.00,0,Wunderground v.1.15,2013-04-11 03:13:00,
2013-04-10 23:19:00,66.7,55.8,29.87,North,5,18.0,24.0,68,0.00,,,0.00,0,Wunderground v.1.15,2013-04-11 03:19:00,
2013-04-10 23:24:00,66.1,55.6,29.88,NNW,344,16.0,23.0,69,0.00,,,0.00,0,Wunderground v.1.15,2013-04-11 03:24:00,
2013-04-10 23:30:00,65.6,55.5,29.87,NW,319,15.0,24.0,70,0.00,,,0.00,0,Wunderground v.1.15,2013-04-11 03:30:00,
2013-04-10 23:35:00,65.1,55.1,29.87,NE,35,15.0,24.0,70,0.00,,,0.00,0,Wunderground v.1.15,2013-04-11 03:35:00,
2013-04-10 23:41:00,64.7,55.1,29.86,NNW,330,12.0,14.0,71,0.00,,,0.00,0,Wunderground v.1.15,2013-04-11 03:41:00,
2013-04-10 23:47:00,64.4,55.2,29.86,NNW,332,10.0,17.0,72,0.00,,,0.00,0,Wunderground v.1.15,2013-04-11 03:47:00,
2013-04-10 23:52:00,64.2,55.0,29.86,North,5,10.0,10.0,72,0.00,,,0.00,0,Wunderground v.1.15,2013-04-11 03:52:00,
2013-04-10 23:58:00,64.1,54.9,29.86,NNE,17,7.0,13.0,72,0.00,,,0.00,0,Wunderground v.1.15,2013-04-11 03:58:00,